createdAt,value
2019-05-02T00:01:15.894Z,10.90
2019-05-02T00:04:02.369Z,12.07
2019-05-02T00:06:48.756Z,11.53
2019-05-02T00:09:33.814Z,12.33
2019-05-02T00:12:19.279Z,11.63
2019-05-02T00:15:04.144Z,13.07
2019-05-02T00:17:49.112Z,14.00
2019-05-02T00:20:33.889Z,14.68
2019-05-02T00:23:23.065Z,13.00
2019-05-02T00:26:05.416Z,14.07
2019-05-02T00:28:50.103Z,13.40
2019-05-02T00:31:34.809Z,13.43
2019-05-02T00:34:20.846Z,14.03
2019-05-02T00:37:05.635Z,14.00
2019-05-02T00:39:50.529Z,14.53
2019-05-02T00:42:35.668Z,13.67
2019-05-02T00:45:23.939Z,14.90
2019-05-02T00:51:15.956Z,13.47
2019-05-02T00:54:02.064Z,15.47
2019-05-02T00:56:46.504Z,14.33
2019-05-02T00:59:23.806Z,14.57
2019-05-02T01:02:19.319Z,14.70
2019-05-02T01:05:04.577Z,14.50
2019-05-02T01:07:49.636Z,14.23
2019-05-02T01:10:35.236Z,14.43
2019-05-02T01:13:20.411Z,14.20
2019-05-02T01:16:05.068Z,13.97
2019-05-02T01:18:49.767Z,13.80
2019-05-02T01:21:38.813Z,13.47
2019-05-02T01:24:20.761Z,14.00
2019-05-02T01:27:07.770Z,14.90
2019-05-02T01:29:54.127Z,14.57
2019-05-02T01:33:01.280Z,14.27
2019-05-02T01:35:53.475Z,13.50
2019-05-02T01:38:43.158Z,14.70
2019-05-02T01:41:29.188Z,14.30
2019-05-02T01:44:14.365Z,13.00
2019-05-02T01:47:00.040Z,13.57
2019-05-02T01:49:45.119Z,12.43
2019-05-02T01:52:29.765Z,12.57
2019-05-02T01:55:17.048Z,14.78
2019-05-02T01:58:00.968Z,13.23
2019-05-02T02:00:46.007Z,13.67
2019-05-02T02:03:30.756Z,13.70
2019-05-02T02:06:15.135Z,13.20
2019-05-02T02:09:03.306Z,13.93
2019-05-02T02:11:46.474Z,13.17
2019-05-02T02:14:31.263Z,13.57
2019-05-02T02:17:17.296Z,13.80
2019-05-02T02:20:03.964Z,14.00
2019-05-02T02:23:10.225Z,14.23
2019-05-02T02:26:01.835Z,13.07
2019-05-02T02:28:46.567Z,14.30
2019-05-02T02:31:31.344Z,14.70
2019-05-02T02:34:21.250Z,14.00
2019-05-02T02:37:05.509Z,13.53
2019-05-02T02:39:54.296Z,13.03
2019-05-02T02:42:35.355Z,13.27
2019-05-02T02:45:23.080Z,12.77
2019-05-02T02:48:07.836Z,13.83
2019-05-02T02:50:52.508Z,13.37
2019-05-02T02:53:37.275Z,13.63
2019-05-02T02:56:21.912Z,14.23
2019-05-02T02:59:06.309Z,15.43
2019-05-02T03:01:51.011Z,14.50
2019-05-02T03:04:35.735Z,13.80
2019-05-02T03:07:25.821Z,14.23
2019-05-02T03:10:08.471Z,14.80
2019-05-02T03:13:15.181Z,14.60
2019-05-02T03:16:16.341Z,14.83
2019-05-02T03:19:00.896Z,16.13
2019-05-02T03:21:54.219Z,14.23
2019-05-02T03:24:44.137Z,13.80
2019-05-02T03:27:29.757Z,14.30
2019-05-02T03:30:28.732Z,14.07
2019-05-02T03:33:06.760Z,18.65
2019-05-02T03:35:49.070Z,16.57
2019-05-02T03:38:34.886Z,15.77
2019-05-02T03:41:20.804Z,15.47
2019-05-02T03:44:11.425Z,14.57
2019-05-02T03:46:54.294Z,15.47
2019-05-02T03:49:41.135Z,15.50
2019-05-02T03:52:24.624Z,14.07
2019-05-02T03:55:09.276Z,14.07
2019-05-02T03:57:57.846Z,14.20
2019-05-02T04:00:42.573Z,13.70
2019-05-02T04:03:27.119Z,13.43
2019-05-02T04:06:13.671Z,13.93
2019-05-02T04:09:00.001Z,13.27
2019-05-02T04:11:44.971Z,13.77
2019-05-02T04:14:38.134Z,13.97
2019-05-02T04:17:16.020Z,14.13
2019-05-02T04:20:01.088Z,13.87
2019-05-02T04:22:48.961Z,14.90
2019-05-02T04:25:33.865Z,14.83
2019-05-02T04:28:19.171Z,14.03
2019-05-02T04:31:06.038Z,14.67
2019-05-02T04:33:50.802Z,14.33
2019-05-02T04:36:23.678Z,14.50
2019-05-02T04:39:15.140Z,14.30
2019-05-02T04:41:54.875Z,14.77
2019-05-02T04:44:52.752Z,14.60
2019-05-02T04:47:29.063Z,17.20
2019-05-02T04:50:17.860Z,16.20
2019-05-02T04:52:59.404Z,15.10
2019-05-02T04:55:52.070Z,16.07
2019-05-02T04:58:34.829Z,17.30
2019-05-02T05:01:16.945Z,15.87
2019-05-02T05:04:03.058Z,19.35
2019-05-02T05:06:55.908Z,17.67
2019-05-02T05:09:34.435Z,16.20
2019-05-02T05:12:19.447Z,16.05
2019-05-02T05:15:04.132Z,17.37
2019-05-02T05:17:50.086Z,15.90
2019-05-02T05:20:37.752Z,16.47
2019-05-02T05:23:23.478Z,15.63
2019-05-02T05:26:08.354Z,15.50
2019-05-02T05:28:52.772Z,14.83
2019-05-02T05:31:38.254Z,14.90
2019-05-02T05:34:27.852Z,15.60
2019-05-02T05:37:13.245Z,14.87
2019-05-02T05:39:55.759Z,16.47
2019-05-02T05:42:40.436Z,16.50
2019-05-02T05:45:27.770Z,16.07
2019-05-02T05:48:13.732Z,15.73
2019-05-02T05:50:58.653Z,15.27
2019-05-02T05:53:43.420Z,16.00
2019-05-02T05:56:32.482Z,16.00
2019-05-02T05:59:17.378Z,15.33
2019-05-02T06:02:05.625Z,15.63
2019-05-02T06:04:50.246Z,16.63
2019-05-02T06:07:41.856Z,17.37
2019-05-02T06:10:21.393Z,17.40
2019-05-02T06:13:10.827Z,17.63
2019-05-02T06:16:02.089Z,17.73
2019-05-02T06:18:41.795Z,17.23
2019-05-02T06:21:25.623Z,17.37
2019-05-02T06:24:10.973Z,17.97
2019-05-02T06:26:55.743Z,18.20
2019-05-02T06:29:40.643Z,18.50
2019-05-02T06:32:25.384Z,18.77
2019-05-02T06:35:10.448Z,18.47
2019-05-02T06:37:55.210Z,18.90
2019-05-02T06:40:28.484Z,21.82
2019-05-02T06:43:13.084Z,19.60
2019-05-02T06:45:57.835Z,20.70
2019-05-02T06:48:42.912Z,19.37
2019-05-02T06:51:27.438Z,19.87
2019-05-02T06:54:12.244Z,20.50
2019-05-02T06:56:56.926Z,19.43
2019-05-02T06:59:41.703Z,21.07
2019-05-02T07:02:28.136Z,21.67
2019-05-02T07:05:12.787Z,22.27
2019-05-02T07:07:57.584Z,23.10
2019-05-02T07:10:44.694Z,22.90
2019-05-02T07:13:28.612Z,24.43
2019-05-02T07:16:38.680Z,22.87
2019-05-02T07:19:29.383Z,25.60
2019-05-02T07:22:14.301Z,26.07
2019-05-02T07:25:01.946Z,26.60
2019-05-02T07:27:45.747Z,28.47
2019-05-02T07:30:35.070Z,28.83
2019-05-02T07:33:17.191Z,29.03
2019-05-02T07:36:01.875Z,29.23
2019-05-02T07:38:46.548Z,31.03
2019-05-02T07:41:31.196Z,31.73
2019-05-02T07:44:15.636Z,32.67
2019-05-02T07:47:02.639Z,41.23
2019-05-02T07:49:47.835Z,39.67
2019-05-02T07:52:33.602Z,40.43
2019-05-02T07:55:18.565Z,38.43
2019-05-02T07:58:06.982Z,38.77
2019-05-02T08:00:50.186Z,35.20
2019-05-02T08:03:34.869Z,35.50
2019-05-02T08:06:34.048Z,35.73
2019-05-02T08:09:08.992Z,37.03
2019-05-02T08:11:53.661Z,40.75
2019-05-02T08:14:38.768Z,34.97
2019-05-02T08:17:23.523Z,37.00
2019-05-02T08:20:05.061Z,34.57
2019-05-02T08:22:50.465Z,36.93
2019-05-02T08:25:35.387Z,35.30
2019-05-02T08:28:25.870Z,36.83
2019-05-02T08:31:13.648Z,38.33
2019-05-02T08:33:56.880Z,38.07
2019-05-02T08:36:41.662Z,40.83
2019-05-02T08:39:33.264Z,39.93
2019-05-02T08:42:12.712Z,39.00
2019-05-02T08:45:00.920Z,39.63
2019-05-02T08:47:44.083Z,39.40
2019-05-02T08:50:31.918Z,39.67
2019-05-02T08:53:19.882Z,39.80
2019-05-02T08:56:01.844Z,38.97
2019-05-02T08:58:49.842Z,38.77
2019-05-02T09:01:35.285Z,38.27
2019-05-02T09:04:24.097Z,39.93
2019-05-02T09:07:06.884Z,38.33
2019-05-02T09:09:51.844Z,40.00
2019-05-02T09:12:36.911Z,41.03
2019-05-02T09:15:22.901Z,38.90
2019-05-02T09:18:07.600Z,40.83
2019-05-02T09:20:56.377Z,42.00
2019-05-02T09:23:41.133Z,40.43
2019-05-02T09:26:35.162Z,39.43
2019-05-02T09:29:12.584Z,43.77
2019-05-02T09:31:57.505Z,43.57
2019-05-02T09:34:42.420Z,42.03
2019-05-02T09:37:27.503Z,42.10
2019-05-02T09:40:16.532Z,40.70
2019-05-02T09:43:01.976Z,44.57
2019-05-02T09:45:45.116Z,44.43
2019-05-02T09:48:31.795Z,49.60
2019-05-02T09:51:17.464Z,43.43
2019-05-02T09:54:06.238Z,42.63
2019-05-02T09:56:48.853Z,42.47
2019-05-02T09:59:33.768Z,40.73
2019-05-02T10:02:18.261Z,40.90
2019-05-02T10:05:03.139Z,43.07
2019-05-02T10:07:48.666Z,44.23
2019-05-02T10:10:28.148Z,44.40
2019-05-02T10:13:12.693Z,41.80
2019-05-02T10:15:57.676Z,45.57
2019-05-02T10:18:43.077Z,41.67
2019-05-02T10:21:28.322Z,41.20
2019-05-02T10:24:12.876Z,41.20
2019-05-02T10:27:04.091Z,40.37
2019-05-02T10:29:44.015Z,41.20
2019-05-02T10:32:28.803Z,40.37
2019-05-02T10:35:15.513Z,40.37
2019-05-02T10:37:59.979Z,39.33
2019-05-02T10:40:48.390Z,40.27
2019-05-02T10:43:32.926Z,39.13
2019-05-02T10:46:36.014Z,36.23
2019-05-02T10:49:17.372Z,39.40
2019-05-02T10:52:02.651Z,41.80
2019-05-02T10:54:47.724Z,42.17
2019-05-02T10:57:32.688Z,40.00
2019-05-02T11:00:17.782Z,37.70
2019-05-02T11:03:04.089Z,40.30
2019-05-02T11:05:52.559Z,38.47
2019-05-02T11:08:42.230Z,37.70
2019-05-02T11:11:24.270Z,35.37
2019-05-02T11:14:19.767Z,34.10
2019-05-02T11:17:13.817Z,34.97
2019-05-02T11:23:02.251Z,33.27
2019-05-02T11:25:47.328Z,33.60
2019-05-02T11:28:32.380Z,31.40
2019-05-02T11:31:17.023Z,30.37
2019-05-02T11:34:02.023Z,28.87
2019-05-02T11:36:46.591Z,31.63
2019-05-02T11:39:37.729Z,35.30
2019-05-02T11:42:21.925Z,30.33
2019-05-02T11:45:03.932Z,30.00
2019-05-02T11:47:48.438Z,29.97
2019-05-02T11:50:35.460Z,29.50
2019-05-02T11:53:29.009Z,26.60
2019-05-02T11:56:07.836Z,27.00
2019-05-02T11:58:53.861Z,26.10
2019-05-02T12:01:39.693Z,27.13
2019-05-02T12:04:24.618Z,25.87
2019-05-02T12:07:09.557Z,24.20
2019-05-02T12:09:57.116Z,28.77
2019-05-02T12:12:42.566Z,27.73
2019-05-02T12:15:27.095Z,28.50
2019-05-02T12:18:12.152Z,26.67
2019-05-02T12:20:56.865Z,28.83
2019-05-02T12:23:41.859Z,27.43
2019-05-02T12:26:26.343Z,29.83
2019-05-02T12:29:12.200Z,32.20
2019-05-02T12:31:57.205Z,27.03
2019-05-02T12:34:42.114Z,26.17
2019-05-02T12:37:27.000Z,27.43
2019-05-02T12:40:12.248Z,22.93
2019-05-02T12:42:57.252Z,28.50
2019-05-02T12:45:42.305Z,27.43
2019-05-02T12:48:27.138Z,26.30
2019-05-02T12:51:12.737Z,26.00
2019-05-02T12:53:57.514Z,26.43
2019-05-02T12:56:42.273Z,30.40
2019-05-02T12:59:26.975Z,30.77
2019-05-02T13:02:13.594Z,29.23
2019-05-02T13:04:58.256Z,32.20
2019-05-02T13:07:50.425Z,31.60
2019-05-02T13:10:32.728Z,30.47
2019-05-02T13:13:17.491Z,29.33
2019-05-02T13:16:03.864Z,27.27
2019-05-02T13:18:48.660Z,25.33
2019-05-02T13:21:57.988Z,25.07
2019-05-02T13:24:47.131Z,29.27
2019-05-02T13:27:32.281Z,27.63
2019-05-02T13:33:38.885Z,31.40
2019-05-02T13:36:23.500Z,27.27
2019-05-02T13:39:08.063Z,29.57
2019-05-02T13:41:52.763Z,29.50
2019-05-02T13:44:42.241Z,27.93
2019-05-02T13:47:27.665Z,27.53
2019-05-02T13:50:12.969Z,30.50
2019-05-02T13:52:58.181Z,30.77
2019-05-02T13:56:02.149Z,30.30
2019-05-02T13:58:46.723Z,34.20
2019-05-02T14:01:31.690Z,35.10
2019-05-02T14:04:16.385Z,35.33
2019-05-02T14:07:02.998Z,35.63
2019-05-02T14:09:50.906Z,32.80
2019-05-02T14:12:53.012Z,33.33
2019-05-02T14:15:38.976Z,35.38
2019-05-02T14:18:29.207Z,31.67
2019-05-02T14:21:09.899Z,32.00
2019-05-02T14:23:54.687Z,31.07
2019-05-02T14:26:39.415Z,31.07
2019-05-02T14:29:23.936Z,31.87
2019-05-02T14:32:20.401Z,30.70
2019-05-02T14:35:02.408Z,31.53
2019-05-02T14:37:48.595Z,30.73
2019-05-02T14:40:33.740Z,29.37
2019-05-02T14:43:38.126Z,33.23
2019-05-02T14:46:29.007Z,29.53
2019-05-02T14:49:12.140Z,27.87
2019-05-02T14:52:01.498Z,26.27
2019-05-02T14:54:47.773Z,26.07
2019-05-02T14:57:29.827Z,26.70
2019-05-02T15:00:16.883Z,26.60
2019-05-02T15:03:03.249Z,25.33
2019-05-02T15:05:47.680Z,27.57
2019-05-02T15:08:36.661Z,26.83
2019-05-02T15:11:19.098Z,26.03
2019-05-02T15:14:03.492Z,24.83
2019-05-02T15:16:49.781Z,28.03
2019-05-02T15:19:34.601Z,27.27
2019-05-02T15:22:19.050Z,26.77
2019-05-02T15:25:07.887Z,23.20
2019-05-02T15:27:58.189Z,31.60
2019-05-02T15:30:43.914Z,27.70
2019-05-02T15:33:25.615Z,29.27
2019-05-02T15:36:12.002Z,28.30
2019-05-02T15:38:56.447Z,26.70
2019-05-02T15:41:44.760Z,27.00
2019-05-02T15:44:28.428Z,24.13
2019-05-02T15:47:13.364Z,22.43
2019-05-02T15:49:57.969Z,23.70
2019-05-02T15:52:47.756Z,26.93
2019-05-02T15:55:39.707Z,27.93
2019-05-02T15:58:23.766Z,27.50
2019-05-02T16:01:13.726Z,32.63
2019-05-02T16:04:01.713Z,20.27
2019-05-02T16:06:46.645Z,29.47
2019-05-02T16:09:32.973Z,26.40
2019-05-02T16:12:17.663Z,29.60
2019-05-02T16:15:04.979Z,28.03
2019-05-02T16:17:48.760Z,26.50
2019-05-02T16:20:47.254Z,28.33
2019-05-02T16:23:32.961Z,27.63
2019-05-02T16:26:14.193Z,29.43
2019-05-02T16:28:58.888Z,27.83
2019-05-02T16:31:45.428Z,26.40
2019-05-02T16:34:33.808Z,28.80
2019-05-02T16:37:17.850Z,29.83
2019-05-02T16:40:02.681Z,28.37
2019-05-02T16:42:47.593Z,31.33
2019-05-02T16:45:32.752Z,29.90
2019-05-02T16:48:17.438Z,29.87
2019-05-02T16:51:02.287Z,27.97
2019-05-02T16:53:47.084Z,27.57
2019-05-02T16:56:31.886Z,34.10
2019-05-02T16:59:16.987Z,30.43
2019-05-02T17:02:07.728Z,29.30
2019-05-02T17:04:49.478Z,31.00
2019-05-02T17:07:39.509Z,29.93
2019-05-02T17:10:36.863Z,30.53
2019-05-02T17:13:21.623Z,29.77
2019-05-02T17:16:13.103Z,33.00
2019-05-02T17:18:56.579Z,31.90
2019-05-02T17:21:53.189Z,29.70
2019-05-02T17:24:27.484Z,35.63
2019-05-02T17:27:20.159Z,28.90
2019-05-02T17:29:59.518Z,25.53
2019-05-02T17:32:45.169Z,25.97
2019-05-02T17:35:29.862Z,27.17
2019-05-02T17:38:14.553Z,27.80
2019-05-02T17:41:06.397Z,27.43
2019-05-02T17:43:45.834Z,24.97
2019-05-02T17:46:30.601Z,27.70
2019-05-02T17:49:14.923Z,26.27
2019-05-02T17:52:19.693Z,28.77
2019-05-02T17:55:01.816Z,29.00
2019-05-02T17:57:46.509Z,28.13
2019-05-02T18:00:34.209Z,28.73
2019-05-02T18:03:24.220Z,30.30
2019-05-02T18:06:07.601Z,30.57
2019-05-02T18:08:55.252Z,32.63
2019-05-02T18:11:38.629Z,33.20
2019-05-02T18:14:24.196Z,35.00
2019-05-02T18:17:12.604Z,32.97
2019-05-02T18:20:06.383Z,35.67
2019-05-02T18:22:51.977Z,42.35
2019-05-02T18:25:44.021Z,35.60
2019-05-02T18:28:28.765Z,32.23
2019-05-02T18:31:23.939Z,33.10
2019-05-02T18:34:02.323Z,35.50
2019-05-02T18:36:47.375Z,38.57
2019-05-02T18:39:34.795Z,33.90
2019-05-02T18:42:22.022Z,32.67
2019-05-02T18:45:05.317Z,33.77
2019-05-02T18:47:53.964Z,35.47
2019-05-02T18:50:41.553Z,34.47
2019-05-02T18:53:27.001Z,30.97
2019-05-02T18:56:05.156Z,33.27
2019-05-02T18:58:49.549Z,36.13
2019-05-02T19:01:34.188Z,31.43
2019-05-02T19:04:19.124Z,30.60
2019-05-02T19:06:58.368Z,33.03
2019-05-02T19:09:50.804Z,33.33
2019-05-02T19:12:29.477Z,34.33
2019-05-02T19:15:14.233Z,37.47
2019-05-02T19:17:58.916Z,36.23
2019-05-02T19:20:50.479Z,36.43
2019-05-02T19:23:31.872Z,35.13
2019-05-02T19:26:16.625Z,36.57
2019-05-02T19:29:08.438Z,40.53
2019-05-02T19:31:52.792Z,35.27
2019-05-02T19:34:37.550Z,38.93
2019-05-02T19:37:22.125Z,39.43
2019-05-02T19:40:06.870Z,35.83
2019-05-02T19:42:52.709Z,39.37
2019-05-02T19:45:37.412Z,39.87
2019-05-02T19:48:22.691Z,41.73
2019-05-02T19:51:12.329Z,45.47
2019-05-02T19:53:59.381Z,43.47
2019-05-02T19:56:45.976Z,41.10
2019-05-02T19:59:28.276Z,41.83
2019-05-02T20:02:13.414Z,40.47
2019-05-02T20:04:58.120Z,42.33
2019-05-02T20:07:42.818Z,41.93
2019-05-02T20:10:27.526Z,42.40
2019-05-02T20:13:12.222Z,40.23
2019-05-02T20:16:05.683Z,40.37
2019-05-02T20:18:48.949Z,42.37
2019-05-02T20:21:38.628Z,37.57
2019-05-02T20:24:25.293Z,39.40
2019-05-02T20:27:12.237Z,45.55
2019-05-02T20:29:56.442Z,38.30
2019-05-02T20:32:42.743Z,37.47
2019-05-02T20:35:27.517Z,41.00
2019-05-02T20:38:13.616Z,39.97
2019-05-02T20:40:58.603Z,43.53
2019-05-02T20:43:44.946Z,40.23
2019-05-02T20:46:32.633Z,41.77
2019-05-02T20:49:17.750Z,40.33
2019-05-02T20:52:02.516Z,40.17
2019-05-02T20:54:47.306Z,40.17
2019-05-02T20:57:31.893Z,40.93
2019-05-02T21:00:16.475Z,41.63
2019-05-02T21:03:02.675Z,40.83
2019-05-02T21:05:52.621Z,38.90
2019-05-02T21:08:56.044Z,34.60
2019-05-02T21:11:42.800Z,34.97
2019-05-02T21:14:27.196Z,37.17
2019-05-02T21:17:12.827Z,41.57
2019-05-02T21:19:57.520Z,39.63
2019-05-02T21:22:42.340Z,41.25
2019-05-02T21:25:27.210Z,38.10
2019-05-02T21:28:12.012Z,38.83
2019-05-02T21:30:56.971Z,38.13
2019-05-02T21:33:42.759Z,39.23
2019-05-02T21:36:27.408Z,42.73
2019-05-02T21:39:12.301Z,38.67
2019-05-02T21:41:57.019Z,37.03
2019-05-02T21:44:42.221Z,37.27
2019-05-02T21:47:26.704Z,37.00
2019-05-02T21:50:16.676Z,34.40
2019-05-02T21:53:09.284Z,31.40
2019-05-02T21:55:55.635Z,31.33
2019-05-02T21:58:42.791Z,32.07
2019-05-02T22:01:27.876Z,31.62
2019-05-02T22:04:13.087Z,25.93
2019-05-02T22:06:58.403Z,24.80
2019-05-02T22:09:42.837Z,25.57
2019-05-02T22:12:27.586Z,24.97
2019-05-02T22:15:12.853Z,22.10
2019-05-02T22:17:57.333Z,20.73
2019-05-02T22:20:42.780Z,21.27
2019-05-02T22:23:27.373Z,19.93
2019-05-02T22:26:12.768Z,20.60
2019-05-02T22:28:57.542Z,20.17
2019-05-02T22:31:43.024Z,19.47
2019-05-02T22:34:28.244Z,18.83
2019-05-02T22:37:14.871Z,17.00
2019-05-02T22:40:03.613Z,18.03
2019-05-02T22:42:48.487Z,17.87
2019-05-02T22:45:33.228Z,18.53
2019-05-02T22:48:17.873Z,19.27
2019-05-02T22:51:02.753Z,17.33
2019-05-02T22:53:47.437Z,17.43
2019-05-02T22:56:32.075Z,16.40
2019-05-02T22:59:16.780Z,16.83
2019-05-02T23:02:02.181Z,16.07
2019-05-02T23:04:47.177Z,15.47
2019-05-02T23:07:32.111Z,14.60
2019-05-02T23:10:16.613Z,14.30
2019-05-02T23:13:02.384Z,14.03
2019-05-02T23:15:47.101Z,13.87
2019-05-02T23:18:32.022Z,11.77
2019-05-02T23:21:16.889Z,12.00
2019-05-02T23:24:03.359Z,10.70
2019-05-02T23:26:51.820Z,10.17
2019-05-02T23:29:36.404Z,10.17
2019-05-02T23:32:23.609Z,10.33
2019-05-02T23:35:07.941Z,10.10
2019-05-02T23:37:53.018Z,10.10
2019-05-02T23:40:38.116Z,10.47
2019-05-02T23:43:22.536Z,10.80
2019-05-02T23:46:07.267Z,11.07
2019-05-02T23:48:52.646Z,9.87
2019-05-02T23:51:37.553Z,9.00
2019-05-02T23:54:22.121Z,10.47
2019-05-02T23:57:06.687Z,10.07
2019-05-02T23:59:51.823Z,9.10
